Time;durP1;ratioP1;P1;durP2;ratioP2;P2;SDS_P1;SDS_P2;PMS_P1;PMS_P2;Temp;Humidity;BMP_temperature;BMP_pressure;BME280_temperature;BME280_humidity;BME280_pressure;Samples;Min_cycle;Max_cycle;Signal;HPM_P1;HPM_P2
2023/06/12 00:01:12;;;;;;;0.60;0.60;;;7.80;99.90;;;;;;5031471;28;20193;-67
2023/06/12 00:03:40;;;;;;;0.70;0.70;;;7.80;99.90;;;;;;5031527;28;20197;-66
2023/06/12 00:06:09;;;;;;;0.77;0.77;;;7.80;99.90;;;;;;5014199;28;20206;-67
2023/06/12 00:08:36;;;;;;;0.70;0.70;;;7.80;99.90;;;;;;5010467;28;20210;-67
2023/06/12 00:11:07;;;;;;;0.60;0.60;;;7.80;99.90;;;;;;5030735;28;20244;-67
2023/06/12 00:13:33;;;;;;;0.70;0.70;;;7.70;99.90;;;;;;5031738;28;20222;-66
2023/06/12 00:15:59;;;;;;;1.85;1.40;;;7.70;99.90;;;;;;5031888;28;20261;-67
2023/06/12 00:18:25;;;;;;;0.80;0.80;;;7.70;99.90;;;;;;5031309;28;20190;-66
2023/06/12 00:20:50;;;;;;;0.60;0.60;;;7.70;99.90;;;;;;5031566;28;20292;-67
2023/06/12 00:23:16;;;;;;;0.60;0.60;;;7.70;99.90;;;;;;5031796;28;20186;-67
2023/06/12 00:25:42;;;;;;;0.60;0.60;;;7.70;99.90;;;;;;5031629;28;20190;-67
2023/06/12 00:28:08;;;;;;;0.70;0.70;;;7.60;99.90;;;;;;5031463;28;20201;-67
2023/06/12 00:30:33;;;;;;;0.70;0.70;;;7.60;99.90;;;;;;5031737;28;20221;-67
2023/06/12 00:33:00;;;;;;;0.60;0.60;;;7.60;99.90;;;;;;5030927;28;20544;-67
2023/06/12 00:35:25;;;;;;;0.60;0.60;;;7.60;99.90;;;;;;5031111;28;20273;-67
2023/06/12 00:37:51;;;;;;;0.60;0.60;;;7.50;99.90;;;;;;5031652;28;20213;-67
2023/06/12 00:40:17;;;;;;;0.70;0.70;;;7.50;99.90;;;;;;5031487;28;20645;-68
2023/06/12 00:42:48;;;;;;;0.63;0.63;;;7.50;99.90;;;;;;5031262;28;20226;-67
2023/06/12 00:45:16;;;;;;;0.60;0.60;;;7.50;99.90;;;;;;5031281;28;20193;-66
2023/06/12 00:47:45;;;;;;;0.60;0.60;;;7.50;99.90;;;;;;5030844;28;20553;-66
2023/06/12 00:50:11;;;;;;;0.70;0.70;;;7.40;99.90;;;;;;5031500;28;20555;-67
2023/06/12 00:52:41;;;;;;;0.60;0.60;;;7.40;99.90;;;;;;5031060;28;20227;-67
2023/06/12 00:55:07;;;;;;;0.60;0.60;;;7.40;99.90;;;;;;5013452;28;20263;-67
2023/06/12 00:57:33;;;;;;;1.38;1.00;;;7.30;99.90;;;;;;5030841;28;20625;-67
2023/06/12 01:00:01;;;;;;;0.60;0.60;;;7.30;99.90;;;;;;5031126;28;20194;-66
2023/06/12 01:02:27;;;;;;;0.70;0.70;;;7.20;99.90;;;;;;5044254;23;20454;-67
2023/06/12 01:04:53;;;;;;;0.60;0.60;;;7.20;99.90;;;;;;5069740;28;20824;-67
2023/06/12 01:07:31;;;;;;;0.60;0.60;;;7.20;99.90;;;;;;5070470;28;20177;-67
2023/06/12 01:10:08;;;;;;;0.50;0.50;;;7.20;99.90;;;;;;5070404;28;20176;-67
2023/06/12 01:12:35;;;;;;;0.60;0.60;;;7.20;99.90;;;;;;5071798;28;20192;-66
2023/06/12 01:15:01;;;;;;;0.70;0.70;;;7.20;99.90;;;;;;5074606;28;20682;-67
2023/06/12 01:17:27;;;;;;;0.60;0.60;;;7.10;99.90;;;;;;5074452;28;20196;-67
2023/06/12 01:19:56;;;;;;;0.60;0.60;;;7.10;99.90;;;;;;5074538;28;20655;-67
2023/06/12 01:22:23;;;;;;;0.70;0.70;;;7.10;99.90;;;;;;5094602;28;20203;-67
2023/06/12 01:25:20;;;;;;;0.70;0.70;;;7.10;99.90;;;;;;5094781;28;20218;-67
2023/06/12 01:27:55;;;;;;;0.60;0.60;;;7.00;99.90;;;;;;5073536;28;20188;-67
2023/06/12 01:30:38;;;;;;;0.60;0.60;;;7.00;99.90;;;;;;5094639;28;20673;-68
2023/06/12 01:33:07;;;;;;;0.70;0.70;;;7.00;99.90;;;;;;5094629;28;20720;-67
2023/06/12 01:35:37;;;;;;;0.60;0.60;;;7.00;99.90;;;;;;5094462;28;20192;-67
2023/06/12 01:38:23;;;;;;;0.60;0.60;;;6.90;99.90;;;;;;5094660;28;20191;-67
2023/06/12 01:40:50;;;;;;;0.70;0.70;;;6.90;99.90;;;;;;5075884;28;20893;-67
2023/06/12 01:43:16;;;;;;;0.60;0.60;;;6.90;99.90;;;;;;5084592;28;20246;-67
2023/06/12 01:45:43;;;;;;;0.70;0.70;;;6.90;99.90;;;;;;5056008;28;20196;-66
2023/06/12 01:48:09;;;;;;;0.70;0.70;;;6.90;99.90;;;;;;5074144;28;20674;-67
2023/06/12 01:50:35;;;;;;;0.70;0.70;;;6.80;99.90;;;;;;5073896;28;20197;-67
2023/06/12 01:53:02;;;;;;;0.60;0.60;;;6.80;99.90;;;;;;5073649;28;20197;-66
2023/06/12 01:55:29;;;;;;;0.70;0.70;;;6.80;99.90;;;;;;5056028;28;20300;-66
2023/06/12 01:57:55;;;;;;;0.70;0.70;;;6.80;99.90;;;;;;5073926;28;20192;-66
2023/06/12 02:00:20;;;;;;;0.70;0.70;;;6.80;99.90;;;;;;5073932;28;20288;-66
2023/06/12 02:02:46;;;;;;;0.70;0.70;;;6.80;99.90;;;;;;5054563;28;20217;-65
2023/06/12 02:05:12;;;;;;;0.70;0.70;;;6.80;99.90;;;;;;5073669;28;20201;-66
2023/06/12 02:07:38;;;;;;;0.90;0.90;;;6.80;99.90;;;;;;5073539;28;20193;-67
2023/06/12 02:10:04;;;;;;;0.75;0.75;;;6.80;99.90;;;;;;5073697;28;20761;-67
2023/06/12 02:12:32;;;;;;;0.68;0.68;;;6.80;99.90;;;;;;5055375;28;20208;-67
2023/06/12 02:14:58;;;;;;;0.70;0.70;;;6.80;99.90;;;;;;5073628;28;20253;-67
2023/06/12 02:17:24;;;;;;;0.70;0.70;;;6.80;99.90;;;;;;5073483;28;20193;-66
2023/06/12 02:19:50;;;;;;;0.70;0.70;;;6.80;99.90;;;;;;5055505;28;20567;-67
2023/06/12 02:22:16;;;;;;;0.70;0.70;;;6.80;99.90;;;;;;5073516;28;20216;-67
2023/06/12 02:24:42;;;;;;;0.60;0.60;;;6.80;99.90;;;;;;5072674;28;20188;-67
2023/06/12 02:27:08;;;;;;;0.70;0.70;;;6.80;99.90;;;;;;5073957;28;20197;-67
2023/06/12 02:29:33;;;;;;;0.70;0.70;;;6.80;99.90;;;;;;5055200;28;20685;-67
2023/06/12 02:31:59;;;;;;;0.60;0.60;;;6.80;99.90;;;;;;5073286;28;20211;-67
2023/06/12 02:34:25;;;;;;;0.60;0.60;;;6.90;99.90;;;;;;5073235;28;20594;-67
2023/06/12 02:36:51;;;;;;;0.70;0.70;;;6.90;99.90;;;;;;5073574;28;20197;-66
2023/06/12 02:39:17;;;;;;;0.70;0.70;;;6.90;99.90;;;;;;5072890;28;20709;-67
2023/06/12 02:41:46;;;;;;;0.70;0.70;;;7.00;99.90;;;;;;5073103;28;20262;-65
2023/06/12 02:44:11;;;;;;;0.70;0.70;;;7.00;99.90;;;;;;5073102;28;20188;-66
2023/06/12 02:46:57;;;;;;;0.65;0.65;;;7.10;99.90;;;;;;5072683;28;20193;-67
2023/06/12 02:49:28;;;;;;;0.70;0.70;;;7.20;99.90;;;;;;5072631;28;20651;-67
2023/06/12 02:51:54;;;;;;;0.60;0.60;;;7.30;99.90;;;;;;5054720;28;20201;-67
2023/06/12 02:54:21;;;;;;;0.70;0.70;;;7.30;99.90;;;;;;5072859;28;20197;-67
2023/06/12 02:56:47;;;;;;;0.60;0.60;;;7.40;99.90;;;;;;5072953;28;20619;-67
2023/06/12 02:59:15;;;;;;;0.60;0.60;;;7.50;99.90;;;;;;5054628;28;20209;-65
2023/06/12 03:01:43;;;;;;;0.60;0.60;;;7.60;99.90;;;;;;5063393;28;20209;-67
2023/06/12 03:04:13;;;;;;;0.60;0.60;;;7.70;99.90;;;;;;5052786;28;20252;-67
2023/06/12 03:06:39;;;;;;;0.60;0.60;;;7.70;99.90;;;;;;5052528;28;20387;-67
2023/06/12 03:09:08;;;;;;;0.60;0.60;;;7.80;99.90;;;;;;5052812;28;20561;-67
2023/06/12 03:11:37;;;;;;;0.68;0.68;;;7.90;99.90;;;;;;5059722;28;20204;-67
2023/06/12 03:14:05;;;;;;;0.60;0.60;;;8.10;99.90;;;;;;5072597;28;20250;-67
2023/06/12 03:16:32;;;;;;;0.60;0.60;;;8.20;99.90;;;;;;5072767;28;20196;-67
2023/06/12 03:18:58;;;;;;;0.70;0.70;;;8.30;99.90;;;;;;5072666;28;20205;-67
2023/06/12 03:21:24;;;;;;;0.80;0.80;;;8.40;99.90;;;;;;5071961;28;20199;-67
2023/06/12 03:23:50;;;;;;;0.77;0.77;;;8.50;99.90;;;;;;5072796;28;20193;-67
2023/06/12 03:26:18;;;;;;;0.63;0.63;;;8.70;99.90;;;;;;5072667;28;20771;-67
2023/06/12 03:28:45;;;;;;;0.70;0.70;;;8.90;99.90;;;;;;5072394;28;20280;-67
2023/06/12 03:31:11;;;;;;;0.80;0.80;;;9.00;99.90;;;;;;5072568;28;20189;-65
2023/06/12 03:33:37;;;;;;;0.63;0.63;;;9.20;99.90;;;;;;5072052;28;20197;-65
2023/06/12 03:36:03;;;;;;;0.70;0.70;;;9.40;99.90;;;;;;5070888;28;20227;-67
2023/06/12 03:38:29;;;;;;;0.60;0.60;;;9.50;99.90;;;;;;5072037;28;20196;-65
2023/06/12 03:40:54;;;;;;;0.60;0.60;;;9.60;99.90;;;;;;5072033;28;20201;-67
2023/06/12 03:43:20;;;;;;;0.60;0.60;;;9.70;99.90;;;;;;5071902;28;20627;-66
2023/06/12 03:45:46;;;;;;;1.33;1.23;;;9.80;99.90;;;;;;5071850;28;20200;-66
2023/06/12 03:48:12;;;;;;;0.80;0.80;;;9.90;99.90;;;;;;5072265;28;20667;-67
2023/06/12 03:50:38;;;;;;;0.60;0.60;;;10.00;99.90;;;;;;5071617;28;20192;-67
2023/06/12 03:53:03;;;;;;;0.55;0.55;;;10.10;99.90;;;;;;5071321;28;20185;-66
2023/06/12 03:55:29;;;;;;;0.60;0.60;;;10.20;99.90;;;;;;5071693;28;20189;-67
2023/06/12 03:57:56;;;;;;;0.73;0.70;;;10.30;99.90;;;;;;5053030;28;20208;-66
2023/06/12 04:00:22;;;;;;;0.60;0.60;;;10.40;99.90;;;;;;5051488;28;20182;-67
2023/06/12 04:02:48;;;;;;;0.50;0.50;;;10.50;99.90;;;;;;5051137;28;20221;-67
2023/06/12 04:05:14;;;;;;;0.60;0.60;;;10.60;99.90;;;;;;5051712;28;20540;-66
2023/06/12 04:07:40;;;;;;;0.60;0.60;;;10.70;99.90;;;;;;5051387;28;20193;-66
2023/06/12 04:10:10;;;;;;;0.50;0.50;;;10.80;99.90;;;;;;5051471;28;20201;-66
2023/06/12 04:12:36;;;;;;;0.80;0.80;;;10.90;99.90;;;;;;5067078;28;20203;-66
2023/06/12 04:15:02;;;;;;;0.68;0.68;;;11.00;99.90;;;;;;5071317;28;20300;-68
2023/06/12 04:17:29;;;;;;;0.50;0.50;;;11.10;99.90;;;;;;5071292;28;20708;-67
2023/06/12 04:19:56;;;;;;;0.63;0.63;;;11.30;99.90;;;;;;5053491;28;20283;-67
2023/06/12 04:22:25;;;;;;;0.50;0.50;;;11.40;99.90;;;;;;5070711;28;20204;-68
2023/06/12 04:24:53;;;;;;;0.50;0.50;;;11.60;99.90;;;;;;5071728;28;20227;-68
2023/06/12 04:27:19;;;;;;;0.50;0.50;;;11.70;99.90;;;;;;5071061;28;20185;-67
2023/06/12 04:29:45;;;;;;;0.60;0.60;;;11.90;99.90;;;;;;5070984;28;20189;-67
2023/06/12 04:32:13;;;;;;;0.82;0.82;;;12.00;99.90;;;;;;5071450;28;20747;-67
2023/06/12 04:34:41;;;;;;;0.50;0.50;;;12.10;99.90;;;;;;5070858;28;20683;-68
2023/06/12 04:37:09;;;;;;;0.40;0.40;;;12.30;99.90;;;;;;5052947;28;20236;-68
2023/06/12 04:39:37;;;;;;;0.50;0.50;;;12.40;99.90;;;;;;5070925;28;20196;-67
2023/06/12 04:42:03;;;;;;;0.82;0.60;;;12.60;99.90;;;;;;5070913;28;20265;-68
2023/06/12 04:44:31;;;;;;;1.27;1.02;;;12.70;99.90;;;;;;5052645;28;20199;-67
2023/06/12 04:47:01;;;;;;;0.50;0.50;;;12.80;99.90;;;;;;5052938;28;20631;-67
2023/06/12 04:49:26;;;;;;;0.80;0.77;;;13.00;99.90;;;;;;5070702;28;20185;-67
2023/06/12 04:51:52;;;;;;;0.50;0.50;;;13.10;99.90;;;;;;5070551;28;20203;-67
2023/06/12 04:54:19;;;;;;;0.45;0.45;;;13.20;99.90;;;;;;5050622;28;20232;-67
2023/06/12 04:56:47;;;;;;;0.50;0.50;;;13.30;99.90;;;;;;5050877;28;20687;-67
2023/06/12 04:59:16;;;;;;;3.58;0.90;;;13.40;99.90;;;;;;5050795;28;20208;-66
2023/06/12 05:01:44;;;;;;;0.40;0.40;;;13.50;99.90;;;;;;5050623;28;20201;-68
2023/06/12 05:04:10;;;;;;;0.52;0.52;;;13.70;99.90;;;;;;5013823;28;20242;-67
2023/06/12 05:06:39;;;;;;;0.30;0.30;;;13.80;99.90;;;;;;5030677;28;20203;-67
2023/06/12 05:09:07;;;;;;;0.35;0.35;;;14.00;99.90;;;;;;5048426;28;20193;-68
2023/06/12 05:11:33;;;;;;;0.50;0.50;;;14.10;99.90;;;;;;5050556;28;20267;-67
2023/06/12 05:13:59;;;;;;;0.47;0.47;;;14.20;99.90;;;;;;5050568;28;20588;-67
2023/06/12 05:16:25;;;;;;;0.60;0.60;;;14.30;99.90;;;;;;5050419;28;20251;-67
2023/06/12 05:18:51;;;;;;;0.40;0.40;;;14.40;99.90;;;;;;5032646;28;20215;-69
2023/06/12 05:21:19;;;;;;;0.57;0.57;;;14.60;99.90;;;;;;5050662;28;20276;-69
2023/06/12 05:23:45;;;;;;;0.40;0.40;;;14.70;99.90;;;;;;5032592;28;20663;-68
2023/06/12 05:26:11;;;;;;;0.50;0.50;;;15.00;99.90;;;;;;5050521;28;20198;-67
2023/06/12 05:28:36;;;;;;;0.50;0.50;;;15.20;99.90;;;;;;5049993;28;20197;-67
2023/06/12 05:31:04;;;;;;;0.40;0.40;;;15.30;99.90;;;;;;5050725;28;20205;-67
2023/06/12 05:33:30;;;;;;;0.60;0.60;;;15.50;99.90;;;;;;5032678;28;20203;-67
2023/06/12 05:35:56;;;;;;;0.30;0.30;;;15.70;99.90;;;;;;5050618;28;20189;-67
2023/06/12 05:38:22;;;;;;;0.40;0.40;;;15.90;99.90;;;;;;5050705;28;20670;-67
2023/06/12 05:40:47;;;;;;;0.47;0.47;;;16.10;99.90;;;;;;5050455;28;20216;-68
2023/06/12 05:43:13;;;;;;;0.30;0.30;;;16.30;99.90;;;;;;5050304;28;20589;-68
2023/06/12 05:45:39;;;;;;;0.50;0.50;;;16.40;99.90;;;;;;5050067;28;20201;-68
2023/06/12 05:48:05;;;;;;;0.50;0.50;;;16.60;99.90;;;;;;5050420;28;20197;-68
2023/06/12 05:50:31;;;;;;;0.38;0.38;;;16.60;99.90;;;;;;5049904;28;20201;-67
2023/06/12 05:52:57;;;;;;;0.40;0.40;;;16.70;99.90;;;;;;5032023;28;20208;-67
2023/06/12 05:55:22;;;;;;;0.40;0.40;;;16.80;99.90;;;;;;5050122;28;20543;-67
2023/06/12 05:57:48;;;;;;;1.05;0.95;;;16.80;99.90;;;;;;5050268;28;20202;-67
2023/06/12 06:00:15;;;;;;;0.30;0.30;;;16.90;99.90;;;;;;5036007;28;20196;-67
2023/06/12 06:02:42;;;;;;;0.40;0.40;;;17.00;99.90;;;;;;5060524;28;20221;-67
2023/06/12 06:05:10;;;;;;;0.52;0.45;;;17.00;99.90;;;;;;5073639;28;20200;-67
2023/06/12 06:07:36;;;;;;;0.35;0.35;;;17.30;99.90;;;;;;5073687;28;20202;-68
2023/06/12 06:10:04;;;;;;;0.45;0.45;;;17.50;99.90;;;;;;5074036;28;20196;-67
2023/06/12 06:12:30;;;;;;;0.40;0.40;;;17.60;99.90;;;;;;5073665;28;20659;-68
2023/06/12 06:14:56;;;;;;;0.28;0.28;;;17.80;99.90;;;;;;5073804;28;20197;-67
2023/06/12 06:17:22;;;;;;;0.30;0.30;;;18.00;99.90;;;;;;5073521;28;20259;-68
2023/06/12 06:19:48;;;;;;;0.45;0.45;;;18.10;99.90;;;;;;5073709;28;20188;-67
2023/06/12 06:22:17;;;;;;;0.30;0.30;;;18.20;99.90;;;;;;5073602;28;20213;-67
2023/06/12 06:24:43;;;;;;;1.08;0.65;;;18.50;99.90;;;;;;5063878;28;20203;-68
2023/06/12 06:27:09;;;;;;;0.60;0.60;;;18.30;99.90;;;;;;5055826;28;20672;-69
2023/06/12 06:29:35;;;;;;;0.50;0.50;;;18.40;99.90;;;;;;5073322;28;20200;-69
2023/06/12 06:32:01;;;;;;;0.40;0.40;;;18.20;99.90;;;;;;5073712;28;20280;-68
2023/06/12 06:34:28;;;;;;;0.63;0.63;;;18.30;99.90;;;;;;5073093;28;20204;-68
2023/06/12 06:36:55;;;;;;;0.40;0.40;;;18.50;99.90;;;;;;5073316;28;20251;-69
2023/06/12 06:39:21;;;;;;;0.20;0.20;;;18.50;99.90;;;;;;5073499;28;20196;-68
2023/06/12 06:41:47;;;;;;;0.50;0.50;;;18.60;99.90;;;;;;5073222;28;20208;-68
2023/06/12 06:44:12;;;;;;;0.45;0.40;;;18.90;99.90;;;;;;5073273;28;20180;-69
2023/06/12 06:46:38;;;;;;;0.60;0.60;;;19.20;99.90;;;;;;5054816;28;20216;-67
2023/06/12 06:49:04;;;;;;;0.40;0.40;;;19.10;99.90;;;;;;5055283;28;20200;-67
2023/06/12 06:51:33;;;;;;;0.45;0.45;;;19.20;99.90;;;;;;5072902;28;20201;-67
2023/06/12 06:53:58;;;;;;;0.68;0.57;;;19.40;99.90;;;;;;5072959;28;20232;-66
2023/06/12 06:56:24;;;;;;;0.30;0.30;;;19.60;99.90;;;;;;5055027;28;20587;-65
2023/06/12 06:58:50;;;;;;;0.30;0.30;;;19.60;99.90;;;;;;5054938;28;20200;-69
2023/06/12 07:01:17;;;;;;;0.85;0.70;;;19.70;99.90;;;;;;5072748;28;20255;-68
2023/06/12 07:03:42;;;;;;;0.40;0.40;;;19.80;99.90;;;;;;5072550;28;20212;-69
2023/06/12 07:06:08;;;;;;;0.55;0.55;;;19.90;99.90;;;;;;5072776;28;20196;-67
2023/06/12 07:08:35;;;;;;;0.30;0.30;;;20.10;99.90;;;;;;5072306;28;20189;-69
2023/06/12 07:11:00;;;;;;;0.65;0.40;;;20.10;99.90;;;;;;5071652;28;20197;-68
2023/06/12 07:13:32;;;;;;;0.52;0.52;;;20.60;99.90;;;;;;5072462;28;20204;-69
2023/06/12 07:15:58;;;;;;;0.40;0.40;;;20.50;99.90;;;;;;5073021;28;20539;-69
2023/06/12 07:18:24;;;;;;;0.50;0.50;;;20.60;99.90;;;;;;5072707;28;20196;-70
2023/06/12 07:20:50;;;;;;;0.60;0.60;;;20.80;99.90;;;;;;5072645;28;20189;-69
2023/06/12 07:23:18;;;;;;;0.65;0.43;;;21.10;99.90;;;;;;5072834;28;20323;-69
2023/06/12 07:25:45;;;;;;;0.30;0.30;;;21.20;99.90;;;;;;5072962;28;20642;-68
2023/06/12 07:28:13;;;;;;;0.30;0.30;;;21.40;99.90;;;;;;5054720;28;20228;-69
2023/06/12 07:30:39;;;;;;;0.22;0.22;;;21.50;99.90;;;;;;5072192;28;20219;-69
2023/06/12 07:33:10;;;;;;;0.20;0.20;;;21.50;99.90;;;;;;5072713;28;20659;-70
2023/06/12 07:35:36;;;;;;;0.47;0.47;;;21.40;99.90;;;;;;5072195;28;20177;-68
2023/06/12 07:38:02;;;;;;;4.15;1.20;;;21.20;99.90;;;;;;5072155;28;20284;-69
2023/06/12 07:40:28;;;;;;;0.35;0.35;;;21.40;99.90;;;;;;5072237;28;20188;-70
2023/06/12 07:43:00;;;;;;;0.20;0.20;;;21.30;99.90;;;;;;5072379;28;20258;-68
2023/06/12 07:45:28;;;;;;;0.30;0.30;;;21.20;99.90;;;;;;5072166;28;20824;-69
2023/06/12 07:47:57;;;;;;;3.30;0.90;;;21.50;99.90;;;;;;5072337;28;20196;-69
2023/06/12 07:50:26;;;;;;;0.20;0.20;;;22.00;99.90;;;;;;5071939;28;20196;-71
2023/06/12 07:52:52;;;;;;;0.70;0.70;;;22.00;99.90;;;;;;5071643;28;20740;-70
2023/06/12 07:55:18;;;;;;;0.85;0.50;;;22.20;99.90;;;;;;5072167;28;20188;-69
2023/06/12 07:57:44;;;;;;;0.20;0.20;;;22.30;99.90;;;;;;5071814;28;20280;-70
2023/06/12 08:00:10;;;;;;;0.32;0.32;;;22.20;99.90;;;;;;5071930;28;20256;-69
2023/06/12 08:02:36;;;;;;;0.68;0.68;;;22.50;99.90;;;;;;5071590;28;20251;-69
2023/06/12 08:05:03;;;;;;;0.30;0.30;;;22.20;99.90;;;;;;5072028;28;20239;-69
2023/06/12 08:07:33;;;;;;;0.28;0.28;;;22.30;99.90;;;;;;5054041;28;20678;-71
2023/06/12 08:09:58;;;;;;;0.60;0.52;;;22.70;99.90;;;;;;5054147;28;20610;-71
2023/06/12 08:12:24;;;;;;;1.92;0.55;;;22.80;99.90;;;;;;5071508;28;20189;-69
2023/06/12 08:14:51;;;;;;;0.47;0.47;;;23.00;99.90;;;;;;5053545;28;20201;-69
2023/06/12 08:17:17;;;;;;;0.25;0.25;;;23.40;98.60;;;;;;5071725;28;20530;-70
2023/06/12 08:19:47;;;;;;;0.75;0.60;;;22.70;97.50;;;;;;5071466;28;20196;-70
2023/06/12 08:22:15;;;;;;;0.20;0.20;;;22.40;99.00;;;;;;5071105;28;20219;-69
2023/06/12 08:24:43;;;;;;;0.30;0.30;;;22.40;99.20;;;;;;5053554;28;20280;-70
2023/06/12 08:27:11;;;;;;;0.20;0.20;;;22.70;99.30;;;;;;5071285;28;20185;-70
2023/06/12 08:29:40;;;;;;;0.30;0.20;;;22.60;99.10;;;;;;5053145;28;20258;-70
2023/06/12 08:32:07;;;;;;;0.43;0.43;;;23.10;98.00;;;;;;5071852;28;20667;-69
2023/06/12 08:34:33;;;;;;;0.10;0.10;;;23.20;98.50;;;;;;5071048;28;20634;-69
2023/06/12 08:36:59;;;;;;;0.38;0.38;;;23.40;98.30;;;;;;5070922;28;20271;-70
2023/06/12 08:39:25;;;;;;;0.30;0.30;;;23.70;99.50;;;;;;5053052;28;20204;-71
2023/06/12 08:42:05;;;;;;;0.20;0.20;;;23.70;98.00;;;;;;5053658;28;20720;-68
2023/06/12 08:44:31;;;;;;;1.48;0.90;;;23.80;98.90;;;;;;5053015;28;20271;-69
2023/06/12 08:47:03;;;;;;;0.10;0.10;;;23.90;97.00;;;;;;5071330;28;20189;-69
2023/06/12 08:49:32;;;;;;;0.30;0.30;;;24.20;97.40;;;;;;5070828;28;20191;-70
2023/06/12 08:51:58;;;;;;;0.65;0.65;;;24.40;97.30;;;;;;5070910;28;20203;-70
2023/06/12 08:54:24;;;;;;;1.38;0.50;;;25.00;96.90;;;;;;5071296;28;20279;-70
2023/06/12 08:56:53;;;;;;;0.20;0.20;;;25.00;95.20;;;;;;5071051;28;20717;-72
2023/06/12 08:59:19;;;;;;;0.17;0.17;;;24.70;96.40;;;;;;5053032;28;20224;-69
2023/06/12 09:01:50;;;;;;;0.40;0.40;;;24.60;95.10;;;;;;5070868;28;20602;-70
2023/06/12 09:04:28;;;;;;;0.25;0.25;;;24.60;95.70;;;;;;5051159;28;20244;-69
2023/06/12 09:07:01;;;;;;;0.32;0.32;;;24.60;93.80;;;;;;5051265;28;20212;-69
2023/06/12 09:09:40;;;;;;;2.70;0.45;;;24.60;95.30;;;;;;5050892;28;20640;-70
2023/06/12 09:12:19;;;;;;;0.10;0.10;;;24.70;94.50;;;;;;5050738;28;20232;-69
2023/06/12 09:14:48;;;;;;;0.73;0.43;;;25.00;95.50;;;;;;5032946;28;20663;-70
2023/06/12 09:17:14;;;;;;;1.10;0.65;;;25.10;97.20;;;;;;5050923;28;20676;-69
2023/06/12 09:19:45;;;;;;;0.20;0.20;;;25.70;95.10;;;;;;5050868;28;20228;-69
2023/06/12 09:22:11;;;;;;;0.95;0.68;;;25.80;95.10;;;;;;5050543;28;20213;-69
2023/06/12 09:24:38;;;;;;;0.43;0.30;;;26.10;93.50;;;;;;5050435;28;20229;-69
2023/06/12 09:27:04;;;;;;;0.40;0.40;;;26.20;94.40;;;;;;5050760;28;20208;-69
2023/06/12 09:29:31;;;;;;;0.38;0.25;;;26.30;92.10;;;;;;5050247;28;20787;-71
2023/06/12 09:32:05;;;;;;;0.20;0.20;;;25.90;92.80;;;;;;5051008;28;20245;-70
2023/06/12 09:34:32;;;;;;;0.40;0.40;;;25.70;93.70;;;;;;5036106;28;20643;-70
2023/06/12 09:37:05;;;;;;;22.73;1.00;;;25.90;94.10;;;;;;5054813;28;20185;-71
2023/06/12 09:39:31;;;;;;;0.28;0.20;;;26.10;92.00;;;;;;5036720;28;20567;-70
2023/06/12 09:41:58;;;;;;;3.00;0.60;;;26.00;92.30;;;;;;5054449;28;20292;-69
2023/06/12 09:44:25;;;;;;;0.20;0.20;;;25.60;91.50;;;;;;5054369;28;20189;-69
2023/06/12 09:46:51;;;;;;;0.90;0.47;;;25.40;92.30;;;;;;5054405;28;20208;-69
2023/06/12 09:49:21;;;;;;;0.28;0.28;;;25.80;93.80;;;;;;5036403;28;20678;-69
2023/06/12 09:51:49;;;;;;;0.63;0.28;;;26.10;93.00;;;;;;5054477;28;20190;-69
2023/06/12 09:54:21;;;;;;;0.40;0.40;;;26.40;92.80;;;;;;5054207;28;20201;-69
2023/06/12 09:56:48;;;;;;;0.20;0.20;;;26.20;90.70;;;;;;5054224;28;20556;-69
2023/06/12 09:59:18;;;;;;;0.43;0.40;;;26.50;89.80;;;;;;5054217;28;20308;-69
2023/06/12 10:02:01;;;;;;;0.45;0.30;;;27.00;86.70;;;;;;5052763;28;20664;-69
2023/06/12 10:04:35;;;;;;;0.20;0.20;;;27.00;86.40;;;;;;5054003;28;20211;-70
2023/06/12 10:07:11;;;;;;;0.30;0.30;;;26.70;86.00;;;;;;5053936;28;20193;-70
2023/06/12 10:09:39;;;;;;;0.40;0.40;;;27.00;87.70;;;;;;5053409;28;20227;-71
2023/06/12 10:12:06;;;;;;;0.47;0.40;;;27.20;87.60;;;;;;5053818;28;20221;-71
2023/06/12 10:14:34;;;;;;;0.15;0.10;;;26.90;84.90;;;;;;5053577;28;20239;-68
2023/06/12 10:17:01;;;;;;;1.15;0.85;;;26.70;89.60;;;;;;5053749;28;20197;-71
2023/06/12 10:19:28;;;;;;;0.20;0.20;;;26.80;88.00;;;;;;5053610;28;20196;-70
2023/06/12 10:21:54;;;;;;;0.55;0.43;;;26.50;85.70;;;;;;5053449;28;20292;-71
2023/06/12 10:24:22;;;;;;;0.40;0.40;;;26.20;87.50;;;;;;5053838;28;20273;-71
2023/06/12 10:26:51;;;;;;;1.25;0.60;;;26.70;85.70;;;;;;5053676;28;20194;-72
2023/06/12 10:29:26;;;;;;;0.25;0.17;;;27.20;90.30;;;;;;5052303;28;20205;-71
2023/06/12 10:31:52;;;;;;;0.40;0.40;;;27.60;84.30;;;;;;5052192;28;20201;-70
2023/06/12 10:34:20;;;;;;;0.13;0.13;;;28.30;90.00;;;;;;5053527;28;20246;-71
2023/06/12 10:36:47;;;;;;;0.47;0.47;;;28.40;82.40;;;;;;5053201;28;20189;-71
2023/06/12 10:39:17;;;;;;;0.40;0.40;;;28.90;82.30;;;;;;5053391;28;20189;-70
2023/06/12 10:41:57;;;;;;;0.20;0.20;;;29.20;84.80;;;;;;5053375;28;20671;-69
2023/06/12 10:44:41;;;;;;;0.98;0.63;;;29.50;82.10;;;;;;5052812;28;20193;-70
2023/06/12 10:47:19;;;;;;;0.15;0.15;;;29.90;80.50;;;;;;5035388;28;20198;-68
2023/06/12 10:50:02;;;;;;;0.60;0.40;;;29.20;83.20;;;;;;5034957;28;20193;-70
2023/06/12 10:52:31;;;;;;;0.30;0.22;;;29.60;80.50;;;;;;5052576;28;20197;-70
2023/06/12 10:55:15;;;;;;;0.20;0.20;;;29.20;78.10;;;;;;5053052;28;20221;-70
2023/06/12 10:57:55;;;;;;;0.20;0.20;;;28.80;77.60;;;;;;5053297;28;20549;-71
2023/06/12 11:00:54;;;;;;;0.55;0.50;;;29.00;75.80;;;;;;5051581;28;20197;-73
2023/06/12 11:03:26;;;;;;;12.57;0.55;;;28.70;76.10;;;;;;5059684;28;20734;-71
2023/06/12 11:05:59;;;;;;;0.25;0.25;;;28.80;78.80;;;;;;5072705;28;20228;-71
2023/06/12 11:08:30;;;;;;;0.22;0.20;;;29.40;74.50;;;;;;5072458;28;20202;-71
2023/06/12 11:10:56;;;;;;;1.25;0.55;;;29.30;73.60;;;;;;5072772;28;20188;-70
2023/06/12 11:13:26;;;;;;;0.63;0.63;;;29.50;73.30;;;;;;5072613;28;20192;-71
2023/06/12 11:15:53;;;;;;;0.50;0.30;;;28.70;71.50;;;;;;5072463;28;20202;-71
2023/06/12 11:18:19;;;;;;;1.00;0.70;;;28.90;73.30;;;;;;5072487;28;20264;-71
2023/06/12 11:20:55;;;;;;;3.10;0.50;;;29.40;73.60;;;;;;5072670;28;20651;-70
2023/06/12 11:23:28;;;;;;;0.30;0.30;;;28.70;68.10;;;;;;5072317;28;20717;-70
2023/06/12 11:25:55;;;;;;;0.55;0.40;;;27.70;68.90;;;;;;5072600;28;20192;-70
2023/06/12 11:28:25;;;;;;;0.20;0.20;;;28.20;72.80;;;;;;5072041;28;20215;-71
2023/06/12 11:30:54;;;;;;;0.10;0.10;;;28.80;69.40;;;;;;5072704;28;20188;-71
2023/06/12 11:33:22;;;;;;;0.15;0.15;;;28.60;69.70;;;;;;5072098;28;20678;-71
2023/06/12 11:35:50;;;;;;;0.43;0.40;;;28.40;67.70;;;;;;5054325;28;20667;-71
2023/06/12 11:38:20;;;;;;;3.80;0.60;;;28.70;69.70;;;;;;5072177;28;20184;-71
2023/06/12 11:40:47;;;;;;;0.47;0.47;;;28.90;66.00;;;;;;5072172;28;20643;-71
2023/06/12 11:43:16;;;;;;;0.43;0.38;;;28.60;70.80;;;;;;5071850;28;20200;-71
2023/06/12 11:45:42;;;;;;;0.95;0.52;;;28.60;67.30;;;;;;5071680;28;20223;-71
2023/06/12 11:48:14;;;;;;;0.60;0.60;;;28.20;69.30;;;;;;5072062;28;20274;-71
2023/06/12 11:50:48;;;;;;;0.30;0.30;;;28.30;73.20;;;;;;5071913;28;20241;-72
2023/06/12 11:53:15;;;;;;;0.28;0.28;;;28.40;66.70;;;;;;5053616;28;20313;-71
2023/06/12 11:55:41;;;;;;;0.38;0.38;;;28.90;67.00;;;;;;5070964;28;20596;-72
2023/06/12 11:58:07;;;;;;;0.40;0.40;;;28.70;68.00;;;;;;5071949;28;20550;-72
2023/06/12 12:00:34;;;;;;;1.10;0.88;;;29.20;69.60;;;;;;5071533;28;20187;-72
2023/06/12 12:03:03;;;;;;;0.50;0.50;;;29.20;69.60;;;;;;5071114;28;20212;-72
2023/06/12 12:05:37;;;;;;;0.20;0.20;;;29.10;65.20;;;;;;5071444;28;20258;-71
2023/06/12 12:08:04;;;;;;;0.55;0.30;;;28.60;65.60;;;;;;5071777;28;20207;-71
2023/06/12 12:10:39;;;;;;;0.10;0.10;;;29.10;64.60;;;;;;5071215;28;20185;-71
2023/06/12 12:13:06;;;;;;;0.52;0.50;;;29.20;64.40;;;;;;5071320;28;20206;-71
2023/06/12 12:15:34;;;;;;;0.10;0.10;;;29.20;65.30;;;;;;5071325;28;20287;-71
2023/06/12 12:18:01;;;;;;;0.45;0.45;;;29.40;65.00;;;;;;5071393;28;20199;-71
2023/06/12 12:20:28;;;;;;;0.30;0.30;;;29.80;66.50;;;;;;5071300;28;20196;-70
2023/06/12 12:23:02;;;;;;;2.55;0.60;;;29.60;61.70;;;;;;5071546;28;20608;-71
2023/06/12 12:25:32;;;;;;;1.92;0.70;;;29.90;63.60;;;;;;5053083;28;20619;-71
2023/06/12 12:28:00;;;;;;;5.13;1.30;;;30.00;64.50;;;;;;5071424;28;20562;-69
2023/06/12 12:30:26;;;;;;;0.30;0.30;;;30.00;63.10;;;;;;5070877;28;20250;-71
2023/06/12 12:32:54;;;;;;;1.20;0.40;;;29.90;64.10;;;;;;5071130;28;20193;-70
2023/06/12 12:35:21;;;;;;;0.40;0.35;;;29.50;63.10;;;;;;5070825;28;20196;-70
2023/06/12 12:37:49;;;;;;;16.65;1.02;;;29.80;64.60;;;;;;5071180;28;20192;-71
2023/06/12 12:40:15;;;;;;;0.28;0.28;;;29.70;62.10;;;;;;5071449;28;20200;-71
2023/06/12 12:42:44;;;;;;;0.17;0.17;;;29.60;62.40;;;;;;5070473;28;20239;-70
2023/06/12 12:45:11;;;;;;;2.33;0.80;;;30.30;66.30;;;;;;5052941;28;20200;-70
2023/06/12 12:47:40;;;;;;;0.38;0.30;;;30.10;61.80;;;;;;5070783;28;20196;-70
2023/06/12 12:50:08;;;;;;;0.98;0.73;;;30.70;63.50;;;;;;5071222;28;20196;-70
2023/06/12 12:52:34;;;;;;;1.25;0.52;;;30.40;61.00;;;;;;5070396;28;20330;-70
2023/06/12 12:55:01;;;;;;;0.20;0.20;;;30.10;59.50;;;;;;5071024;28;20663;-71